sensor_id;sensor_type;location;lat;lon;timestamp;P1;durP1;ratioP1;P2;durP2;ratioP2
17564;SDS011;62994;52.126;5.596;2023-05-10T00:00:00;12.80;;;11.77;;
17564;SDS011;62994;52.126;5.596;2023-05-10T00:02:31;14.27;;;13.30;;
17564;SDS011;62994;52.126;5.596;2023-05-10T00:04:58;13.38;;;12.38;;
17564;SDS011;62994;52.126;5.596;2023-05-10T00:07:24;14.52;;;13.15;;
17564;SDS011;62994;52.126;5.596;2023-05-10T00:09:53;15.52;;;14.00;;
17564;SDS011;62994;52.126;5.596;2023-05-10T00:12:25;15.35;;;14.07;;
17564;SDS011;62994;52.126;5.596;2023-05-10T00:14:55;17.10;;;15.30;;
17564;SDS011;62994;52.126;5.596;2023-05-10T00:17:26;16.73;;;15.23;;
17564;SDS011;62994;52.126;5.596;2023-05-10T00:19:54;16.75;;;15.07;;
17564;SDS011;62994;52.126;5.596;2023-05-10T00:22:21;17.58;;;15.18;;
17564;SDS011;62994;52.126;5.596;2023-05-10T00:24:48;20.02;;;17.15;;
17564;SDS011;62994;52.126;5.596;2023-05-10T00:27:17;21.40;;;17.17;;
17564;SDS011;62994;52.126;5.596;2023-05-10T00:29:45;19.23;;;16.83;;
17564;SDS011;62994;52.126;5.596;2023-05-10T00:32:12;22.23;;;18.40;;
17564;SDS011;62994;52.126;5.596;2023-05-10T00:34:41;23.45;;;18.73;;
17564;SDS011;62994;52.126;5.596;2023-05-10T00:37:16;23.42;;;18.83;;
17564;SDS011;62994;52.126;5.596;2023-05-10T00:39:45;22.75;;;17.83;;
17564;SDS011;62994;52.126;5.596;2023-05-10T00:42:13;21.85;;;16.85;;
17564;SDS011;62994;52.126;5.596;2023-05-10T00:44:40;22.95;;;17.95;;
17564;SDS011;62994;52.126;5.596;2023-05-10T00:47:09;30.02;;;21.17;;
17564;SDS011;62994;52.126;5.596;2023-05-10T00:49:38;29.40;;;20.15;;
17564;SDS011;62994;52.126;5.596;2023-05-10T00:52:08;27.60;;;20.67;;
17564;SDS011;62994;52.126;5.596;2023-05-10T00:54:37;26.88;;;19.48;;
17564;SDS011;62994;52.126;5.596;2023-05-10T00:57:04;27.67;;;20.55;;
17564;SDS011;62994;52.126;5.596;2023-05-10T00:59:31;25.88;;;20.08;;
17564;SDS011;62994;52.126;5.596;2023-05-10T01:01:58;24.70;;;19.23;;
17564;SDS011;62994;52.126;5.596;2023-05-10T01:04:27;27.65;;;21.08;;
17564;SDS011;62994;52.126;5.596;2023-05-10T01:06:55;31.02;;;21.25;;
17564;SDS011;62994;52.126;5.596;2023-05-10T01:09:22;35.30;;;22.63;;
17564;SDS011;62994;52.126;5.596;2023-05-10T01:11:52;34.60;;;22.25;;
17564;SDS011;62994;52.126;5.596;2023-05-10T01:14:20;38.38;;;24.98;;
17564;SDS011;62994;52.126;5.596;2023-05-10T01:16:48;33.17;;;21.75;;
17564;SDS011;62994;52.126;5.596;2023-05-10T01:19:17;40.22;;;24.88;;
17564;SDS011;62994;52.126;5.596;2023-05-10T01:21:49;35.92;;;24.45;;
17564;SDS011;62994;52.126;5.596;2023-05-10T01:24:31;45.80;;;25.67;;
17564;SDS011;62994;52.126;5.596;2023-05-10T01:33:21;40.28;;;26.02;;
17564;SDS011;62994;52.126;5.596;2023-05-10T01:35:54;45.25;;;25.95;;
17564;SDS011;62994;52.126;5.596;2023-05-10T01:38:31;40.47;;;24.10;;
17564;SDS011;62994;52.126;5.596;2023-05-10T01:41:07;42.35;;;26.38;;
17564;SDS011;62994;52.126;5.596;2023-05-10T01:43:42;54.25;;;28.58;;
17564;SDS011;62994;52.126;5.596;2023-05-10T01:46:17;46.45;;;25.50;;
17564;SDS011;62994;52.126;5.596;2023-05-10T01:48:53;47.17;;;26.30;;
17564;SDS011;62994;52.126;5.596;2023-05-10T01:51:23;42.38;;;26.10;;
17564;SDS011;62994;52.126;5.596;2023-05-10T01:53:56;48.00;;;26.48;;
17564;SDS011;62994;52.126;5.596;2023-05-10T01:56:26;44.28;;;25.42;;
17564;SDS011;62994;52.126;5.596;2023-05-10T01:59:02;47.40;;;27.27;;
17564;SDS011;62994;52.126;5.596;2023-05-10T02:01:35;44.03;;;24.83;;
17564;SDS011;62994;52.126;5.596;2023-05-10T02:04:05;41.00;;;24.67;;
17564;SDS011;62994;52.126;5.596;2023-05-10T02:06:35;41.40;;;25.42;;
17564;SDS011;62994;52.126;5.596;2023-05-10T02:09:10;47.90;;;24.75;;
17564;SDS011;62994;52.126;5.596;2023-05-10T02:11:41;47.33;;;26.42;;
17564;SDS011;62994;52.126;5.596;2023-05-10T02:14:09;42.85;;;24.88;;
17564;SDS011;62994;52.126;5.596;2023-05-10T02:16:37;44.22;;;25.35;;
17564;SDS011;62994;52.126;5.596;2023-05-10T02:19:08;45.55;;;27.75;;
17564;SDS011;62994;52.126;5.596;2023-05-10T02:21:36;45.67;;;25.73;;
17564;SDS011;62994;52.126;5.596;2023-05-10T02:24:05;46.97;;;26.45;;
17564;SDS011;62994;52.126;5.596;2023-05-10T02:26:34;51.67;;;26.83;;
17564;SDS011;62994;52.126;5.596;2023-05-10T02:29:02;47.58;;;26.75;;
17564;SDS011;62994;52.126;5.596;2023-05-10T02:31:34;44.28;;;26.88;;
17564;SDS011;62994;52.126;5.596;2023-05-10T02:34:03;43.58;;;24.33;;
17564;SDS011;62994;52.126;5.596;2023-05-10T02:36:34;44.17;;;25.35;;
17564;SDS011;62994;52.126;5.596;2023-05-10T02:39:01;44.60;;;26.70;;
17564;SDS011;62994;52.126;5.596;2023-05-10T02:41:30;40.15;;;24.77;;
17564;SDS011;62994;52.126;5.596;2023-05-10T02:43:59;45.03;;;25.38;;
17564;SDS011;62994;52.126;5.596;2023-05-10T02:46:33;44.72;;;25.65;;
17564;SDS011;62994;52.126;5.596;2023-05-10T02:51:47;46.45;;;29.05;;
17564;SDS011;62994;52.126;5.596;2023-05-10T02:54:27;42.00;;;25.33;;
17564;SDS011;62994;52.126;5.596;2023-05-10T02:56:58;43.10;;;25.73;;
17564;SDS011;62994;52.126;5.596;2023-05-10T02:59:45;44.15;;;25.20;;
17564;SDS011;62994;52.126;5.596;2023-05-10T03:02:44;47.30;;;25.85;;
17564;SDS011;62994;52.126;5.596;2023-05-10T03:05:24;48.25;;;27.20;;
17564;SDS011;62994;52.126;5.596;2023-05-10T03:07:53;47.67;;;26.60;;
17564;SDS011;62994;52.126;5.596;2023-05-10T03:10:23;51.30;;;26.63;;
17564;SDS011;62994;52.126;5.596;2023-05-10T03:13:01;58.85;;;27.27;;
17564;SDS011;62994;52.126;5.596;2023-05-10T03:16:06;47.28;;;25.92;;
17564;SDS011;62994;52.126;5.596;2023-05-10T03:18:48;47.67;;;26.25;;
17564;SDS011;62994;52.126;5.596;2023-05-10T03:21:41;51.55;;;25.33;;
17564;SDS011;62994;52.126;5.596;2023-05-10T03:27:09;48.83;;;26.08;;
17564;SDS011;62994;52.126;5.596;2023-05-10T03:29:48;41.28;;;24.42;;
17564;SDS011;62994;52.126;5.596;2023-05-10T03:32:19;44.97;;;25.33;;
17564;SDS011;62994;52.126;5.596;2023-05-10T03:35:12;44.78;;;25.83;;
17564;SDS011;62994;52.126;5.596;2023-05-10T03:37:42;49.53;;;26.20;;
17564;SDS011;62994;52.126;5.596;2023-05-10T03:40:16;59.20;;;28.75;;
17564;SDS011;62994;52.126;5.596;2023-05-10T03:43:04;58.17;;;28.70;;
17564;SDS011;62994;52.126;5.596;2023-05-10T03:45:39;54.70;;;27.75;;
17564;SDS011;62994;52.126;5.596;2023-05-10T03:48:14;58.22;;;28.20;;
17564;SDS011;62994;52.126;5.596;2023-05-10T03:50:52;62.42;;;28.83;;
17564;SDS011;62994;52.126;5.596;2023-05-10T03:53:29;64.00;;;30.50;;
17564;SDS011;62994;52.126;5.596;2023-05-10T03:56:04;71.22;;;31.85;;
17564;SDS011;62994;52.126;5.596;2023-05-10T03:58:43;68.30;;;30.13;;
17564;SDS011;62994;52.126;5.596;2023-05-10T04:01:16;66.30;;;28.83;;
17564;SDS011;62994;52.126;5.596;2023-05-10T04:03:48;78.00;;;32.10;;
17564;SDS011;62994;52.126;5.596;2023-05-10T04:06:16;71.88;;;31.13;;
17564;SDS011;62994;52.126;5.596;2023-05-10T04:08:54;79.20;;;32.58;;
17564;SDS011;62994;52.126;5.596;2023-05-10T04:11:30;73.25;;;28.85;;
17564;SDS011;62994;52.126;5.596;2023-05-10T04:14:02;76.75;;;32.15;;
17564;SDS011;62994;52.126;5.596;2023-05-10T04:16:48;93.60;;;41.00;;
17564;SDS011;62994;52.126;5.596;2023-05-10T04:19:17;72.03;;;31.48;;
17564;SDS011;62994;52.126;5.596;2023-05-10T04:21:46;73.65;;;31.58;;
17564;SDS011;62994;52.126;5.596;2023-05-10T04:24:19;73.20;;;30.50;;
17564;SDS011;62994;52.126;5.596;2023-05-10T04:26:58;71.80;;;31.15;;
17564;SDS011;62994;52.126;5.596;2023-05-10T04:29:44;65.35;;;28.40;;
17564;SDS011;62994;52.126;5.596;2023-05-10T04:32:17;67.10;;;28.65;;
17564;SDS011;62994;52.126;5.596;2023-05-10T04:34:48;68.32;;;28.92;;
17564;SDS011;62994;52.126;5.596;2023-05-10T04:37:23;65.03;;;28.02;;
17564;SDS011;62994;52.126;5.596;2023-05-10T04:39:53;69.40;;;29.67;;
17564;SDS011;62994;52.126;5.596;2023-05-10T04:42:28;59.90;;;26.63;;
17564;SDS011;62994;52.126;5.596;2023-05-10T04:45:08;62.17;;;27.45;;
17564;SDS011;62994;52.126;5.596;2023-05-10T04:47:38;63.45;;;27.67;;
17564;SDS011;62994;52.126;5.596;2023-05-10T04:50:22;61.28;;;26.60;;
17564;SDS011;62994;52.126;5.596;2023-05-10T04:52:53;64.10;;;27.80;;
17564;SDS011;62994;52.126;5.596;2023-05-10T04:55:23;65.55;;;28.48;;
17564;SDS011;62994;52.126;5.596;2023-05-10T04:58:10;66.50;;;30.85;;
17564;SDS011;62994;52.126;5.596;2023-05-10T05:00:44;60.33;;;27.73;;
17564;SDS011;62994;52.126;5.596;2023-05-10T05:06:01;62.72;;;28.13;;
17564;SDS011;62994;52.126;5.596;2023-05-10T05:08:38;61.72;;;26.38;;
17564;SDS011;62994;52.126;5.596;2023-05-10T05:11:08;53.28;;;24.90;;
17564;SDS011;62994;52.126;5.596;2023-05-10T05:13:39;62.53;;;26.80;;
17564;SDS011;62994;52.126;5.596;2023-05-10T05:16:07;64.75;;;26.80;;
17564;SDS011;62994;52.126;5.596;2023-05-10T05:18:45;64.63;;;27.08;;
17564;SDS011;62994;52.126;5.596;2023-05-10T05:21:21;68.07;;;27.70;;
17564;SDS011;62994;52.126;5.596;2023-05-10T05:23:57;74.90;;;29.42;;
17564;SDS011;62994;52.126;5.596;2023-05-10T05:26:56;70.13;;;28.70;;
17564;SDS011;62994;52.126;5.596;2023-05-10T05:29:23;64.53;;;27.30;;
17564;SDS011;62994;52.126;5.596;2023-05-10T05:31:58;64.53;;;27.33;;
17564;SDS011;62994;52.126;5.596;2023-05-10T05:34:33;66.45;;;27.65;;
17564;SDS011;62994;52.126;5.596;2023-05-10T05:37:07;66.78;;;28.48;;
17564;SDS011;62994;52.126;5.596;2023-05-10T05:39:46;76.20;;;29.30;;
17564;SDS011;62994;52.126;5.596;2023-05-10T05:42:22;68.22;;;28.27;;
17564;SDS011;62994;52.126;5.596;2023-05-10T05:44:56;81.45;;;31.17;;
17564;SDS011;62994;52.126;5.596;2023-05-10T05:47:24;68.68;;;28.10;;
17564;SDS011;62994;52.126;5.596;2023-05-10T05:50:01;71.68;;;26.40;;
17564;SDS011;62994;52.126;5.596;2023-05-10T05:52:38;73.85;;;29.60;;
17564;SDS011;62994;52.126;5.596;2023-05-10T05:55:11;68.97;;;29.17;;
17564;SDS011;62994;52.126;5.596;2023-05-10T05:57:58;86.75;;;30.73;;
17564;SDS011;62994;52.126;5.596;2023-05-10T06:00:36;76.72;;;29.90;;
17564;SDS011;62994;52.126;5.596;2023-05-10T06:03:13;79.57;;;30.33;;
17564;SDS011;62994;52.126;5.596;2023-05-10T06:05:42;75.82;;;30.63;;
17564;SDS011;62994;52.126;5.596;2023-05-10T06:08:15;86.43;;;30.92;;
17564;SDS011;62994;52.126;5.596;2023-05-10T06:10:42;74.68;;;29.17;;
17564;SDS011;62994;52.126;5.596;2023-05-10T06:13:10;77.60;;;30.38;;
17564;SDS011;62994;52.126;5.596;2023-05-10T06:18:27;81.03;;;30.08;;
17564;SDS011;62994;52.126;5.596;2023-05-10T06:21:10;79.85;;;30.40;;
17564;SDS011;62994;52.126;5.596;2023-05-10T06:23:38;82.82;;;30.58;;
17564;SDS011;62994;52.126;5.596;2023-05-10T06:26:13;80.68;;;30.75;;
17564;SDS011;62994;52.126;5.596;2023-05-10T06:28:50;77.82;;;32.22;;
17564;SDS011;62994;52.126;5.596;2023-05-10T06:34:30;66.63;;;29.42;;
17564;SDS011;62994;52.126;5.596;2023-05-10T06:37:05;64.93;;;29.42;;
17564;SDS011;62994;52.126;5.596;2023-05-10T06:39:43;68.03;;;29.83;;
17564;SDS011;62994;52.126;5.596;2023-05-10T06:42:16;63.90;;;28.48;;
17564;SDS011;62994;52.126;5.596;2023-05-10T06:44:50;58.40;;;29.13;;
17564;SDS011;62994;52.126;5.596;2023-05-10T06:47:25;54.88;;;26.50;;
17564;SDS011;62994;52.126;5.596;2023-05-10T06:49:53;54.20;;;26.55;;
17564;SDS011;62994;52.126;5.596;2023-05-10T06:52:22;53.67;;;27.20;;
17564;SDS011;62994;52.126;5.596;2023-05-10T06:54:52;59.00;;;27.35;;
17564;SDS011;62994;52.126;5.596;2023-05-10T06:57:40;51.85;;;26.73;;
17564;SDS011;62994;52.126;5.596;2023-05-10T07:00:19;54.03;;;26.17;;
17564;SDS011;62994;52.126;5.596;2023-05-10T07:02:52;53.67;;;26.77;;
17564;SDS011;62994;52.126;5.596;2023-05-10T07:05:24;51.63;;;26.30;;
17564;SDS011;62994;52.126;5.596;2023-05-10T07:07:58;49.83;;;25.38;;
17564;SDS011;62994;52.126;5.596;2023-05-10T07:10:28;50.10;;;25.60;;
17564;SDS011;62994;52.126;5.596;2023-05-10T07:13:11;49.35;;;25.95;;
17564;SDS011;62994;52.126;5.596;2023-05-10T07:15:47;40.63;;;21.90;;
17564;SDS011;62994;52.126;5.596;2023-05-10T07:18:23;38.13;;;21.23;;
17564;SDS011;62994;52.126;5.596;2023-05-10T07:20:58;36.20;;;21.00;;
17564;SDS011;62994;52.126;5.596;2023-05-10T07:23:30;34.15;;;18.90;;
17564;SDS011;62994;52.126;5.596;2023-05-10T07:26:09;27.83;;;16.00;;
17564;SDS011;62994;52.126;5.596;2023-05-10T07:28:44;31.25;;;15.88;;
17564;SDS011;62994;52.126;5.596;2023-05-10T07:34:19;23.33;;;16.00;;
17564;SDS011;62994;52.126;5.596;2023-05-10T07:36:58;22.77;;;14.90;;
17564;SDS011;62994;52.126;5.596;2023-05-10T07:39:36;26.10;;;15.35;;
17564;SDS011;62994;52.126;5.596;2023-05-10T07:42:11;25.73;;;15.13;;
17564;SDS011;62994;52.126;5.596;2023-05-10T07:44:41;23.30;;;15.10;;
17564;SDS011;62994;52.126;5.596;2023-05-10T07:47:16;17.92;;;13.52;;
17564;SDS011;62994;52.126;5.596;2023-05-10T07:49:51;13.93;;;12.50;;
17564;SDS011;62994;52.126;5.596;2023-05-10T07:52:24;14.00;;;11.65;;
17564;SDS011;62994;52.126;5.596;2023-05-10T07:54:59;12.73;;;11.07;;
17564;SDS011;62994;52.126;5.596;2023-05-10T07:57:41;11.35;;;10.23;;
17564;SDS011;62994;52.126;5.596;2023-05-10T08:00:18;12.57;;;11.27;;
17564;SDS011;62994;52.126;5.596;2023-05-10T08:03:30;13.30;;;11.02;;
17564;SDS011;62994;52.126;5.596;2023-05-10T08:09:26;11.63;;;10.15;;
17564;SDS011;62994;52.126;5.596;2023-05-10T08:12:00;14.13;;;10.30;;
17564;SDS011;62994;52.126;5.596;2023-05-10T08:14:39;10.18;;;9.23;;
17564;SDS011;62994;52.126;5.596;2023-05-10T08:17:31;12.13;;;10.85;;
17564;SDS011;62994;52.126;5.596;2023-05-10T08:19:59;13.02;;;10.68;;
17564;SDS011;62994;52.126;5.596;2023-05-10T08:22:48;11.40;;;10.05;;
17564;SDS011;62994;52.126;5.596;2023-05-10T08:25:18;13.82;;;10.63;;
17564;SDS011;62994;52.126;5.596;2023-05-10T08:27:48;16.30;;;11.07;;
17564;SDS011;62994;52.126;5.596;2023-05-10T08:30:17;12.18;;;10.88;;
17564;SDS011;62994;52.126;5.596;2023-05-10T08:32:52;10.40;;;9.63;;
17564;SDS011;62994;52.126;5.596;2023-05-10T08:35:23;10.38;;;9.32;;
17564;SDS011;62994;52.126;5.596;2023-05-10T08:37:58;10.55;;;9.55;;
17564;SDS011;62994;52.126;5.596;2023-05-10T08:40:53;10.68;;;9.77;;
17564;SDS011;62994;52.126;5.596;2023-05-10T08:43:26;10.93;;;9.90;;
17564;SDS011;62994;52.126;5.596;2023-05-10T08:46:17;10.85;;;9.20;;
17564;SDS011;62994;52.126;5.596;2023-05-10T08:49:01;10.40;;;9.50;;
17564;SDS011;62994;52.126;5.596;2023-05-10T08:51:42;14.50;;;9.48;;
17564;SDS011;62994;52.126;5.596;2023-05-10T08:54:20;10.95;;;9.85;;
17564;SDS011;62994;52.126;5.596;2023-05-10T08:59:49;10.15;;;9.18;;
17564;SDS011;62994;52.126;5.596;2023-05-10T09:02:25;11.40;;;10.40;;
17564;SDS011;62994;52.126;5.596;2023-05-10T09:04:53;11.02;;;10.02;;
17564;SDS011;62994;52.126;5.596;2023-05-10T09:07:24;10.88;;;9.95;;
17564;SDS011;62994;52.126;5.596;2023-05-10T09:09:55;10.85;;;9.90;;
17564;SDS011;62994;52.126;5.596;2023-05-10T09:12:32;11.60;;;10.40;;
17564;SDS011;62994;52.126;5.596;2023-05-10T09:15:05;12.43;;;11.43;;
17564;SDS011;62994;52.126;5.596;2023-05-10T09:17:35;11.77;;;10.82;;
17564;SDS011;62994;52.126;5.596;2023-05-10T09:20:08;11.80;;;10.63;;
17564;SDS011;62994;52.126;5.596;2023-05-10T09:22:42;11.90;;;10.65;;
17564;SDS011;62994;52.126;5.596;2023-05-10T09:25:17;10.45;;;9.63;;
17564;SDS011;62994;52.126;5.596;2023-05-10T09:27:54;11.52;;;9.77;;
17564;SDS011;62994;52.126;5.596;2023-05-10T09:30:26;10.02;;;9.13;;
17564;SDS011;62994;52.126;5.596;2023-05-10T09:33:14;10.05;;;9.25;;
17564;SDS011;62994;52.126;5.596;2023-05-10T09:35:48;11.10;;;10.05;;
17564;SDS011;62994;52.126;5.596;2023-05-10T09:38:22;10.23;;;9.20;;
17564;SDS011;62994;52.126;5.596;2023-05-10T09:40:51;9.70;;;8.70;;
17564;SDS011;62994;52.126;5.596;2023-05-10T09:43:23;11.20;;;10.20;;
17564;SDS011;62994;52.126;5.596;2023-05-10T09:45:56;10.65;;;9.75;;
17564;SDS011;62994;52.126;5.596;2023-05-10T09:48:23;11.35;;;10.35;;
17564;SDS011;62994;52.126;5.596;2023-05-10T09:51:00;11.23;;;10.27;;
17564;SDS011;62994;52.126;5.596;2023-05-10T09:53:35;10.23;;;9.27;;
17564;SDS011;62994;52.126;5.596;2023-05-10T09:56:10;9.93;;;9.25;;
17564;SDS011;62994;52.126;5.596;2023-05-10T09:58:43;10.20;;;9.38;;
17564;SDS011;62994;52.126;5.596;2023-05-10T10:01:10;9.02;;;8.32;;
17564;SDS011;62994;52.126;5.596;2023-05-10T10:03:44;7.95;;;7.45;;
17564;SDS011;62994;52.126;5.596;2023-05-10T10:06:28;7.75;;;7.07;;
17564;SDS011;62994;52.126;5.596;2023-05-10T10:09:02;7.93;;;7.38;;
17564;SDS011;62994;52.126;5.596;2023-05-10T10:11:49;7.93;;;7.43;;
17564;SDS011;62994;52.126;5.596;2023-05-10T10:14:29;7.90;;;7.30;;
17564;SDS011;62994;52.126;5.596;2023-05-10T10:20:08;7.10;;;6.60;;
17564;SDS011;62994;52.126;5.596;2023-05-10T10:25:56;6.38;;;5.90;;
17564;SDS011;62994;52.126;5.596;2023-05-10T10:28:51;5.90;;;5.60;;
17564;SDS011;62994;52.126;5.596;2023-05-10T10:31:51;5.25;;;5.00;;
17564;SDS011;62994;52.126;5.596;2023-05-10T10:34:36;5.45;;;5.05;;
17564;SDS011;62994;52.126;5.596;2023-05-10T10:37:21;5.80;;;5.35;;
17564;SDS011;62994;52.126;5.596;2023-05-10T10:40:25;6.38;;;5.97;;
17564;SDS011;62994;52.126;5.596;2023-05-10T10:42:54;5.95;;;5.55;;
17564;SDS011;62994;52.126;5.596;2023-05-10T10:49:08;4.97;;;4.72;;
17564;SDS011;62994;52.126;5.596;2023-05-10T10:52:12;5.13;;;4.82;;
17564;SDS011;62994;52.126;5.596;2023-05-10T10:57:46;3.65;;;3.45;;
17564;SDS011;62994;52.126;5.596;2023-05-10T11:00:26;4.38;;;4.15;;
17564;SDS011;62994;52.126;5.596;2023-05-10T11:03:09;4.70;;;4.30;;
17564;SDS011;62994;52.126;5.596;2023-05-10T11:05:41;4.72;;;4.53;;
17564;SDS011;62994;52.126;5.596;2023-05-10T11:08:16;5.40;;;5.07;;
17564;SDS011;62994;52.126;5.596;2023-05-10T11:10:51;6.07;;;5.68;;
17564;SDS011;62994;52.126;5.596;2023-05-10T11:13:56;5.85;;;5.50;;
17564;SDS011;62994;52.126;5.596;2023-05-10T11:16:43;6.88;;;6.22;;
17564;SDS011;62994;52.126;5.596;2023-05-10T11:19:20;7.75;;;7.15;;
17564;SDS011;62994;52.126;5.596;2023-05-10T11:22:13;6.97;;;6.47;;
17564;SDS011;62994;52.126;5.596;2023-05-10T11:24:55;7.03;;;6.50;;
17564;SDS011;62994;52.126;5.596;2023-05-10T11:27:34;6.93;;;6.53;;
17564;SDS011;62994;52.126;5.596;2023-05-10T11:30:06;7.10;;;6.70;;
17564;SDS011;62994;52.126;5.596;2023-05-10T11:32:40;6.15;;;5.85;;
17564;SDS011;62994;52.126;5.596;2023-05-10T11:35:15;5.78;;;5.30;;
17564;SDS011;62994;52.126;5.596;2023-05-10T11:37:52;5.90;;;5.50;;
17564;SDS011;62994;52.126;5.596;2023-05-10T11:40:29;6.88;;;6.38;;
17564;SDS011;62994;52.126;5.596;2023-05-10T11:43:23;6.05;;;5.65;;
17564;SDS011;62994;52.126;5.596;2023-05-10T11:45:56;7.10;;;6.60;;
17564;SDS011;62994;52.126;5.596;2023-05-10T11:48:29;6.55;;;6.25;;
17564;SDS011;62994;52.126;5.596;2023-05-10T11:51:02;6.85;;;6.13;;
17564;SDS011;62994;52.126;5.596;2023-05-10T11:53:42;5.57;;;5.10;;
17564;SDS011;62994;52.126;5.596;2023-05-10T11:56:29;4.88;;;4.57;;
17564;SDS011;62994;52.126;5.596;2023-05-10T11:59:19;5.57;;;5.18;;
17564;SDS011;62994;52.126;5.596;2023-05-10T12:01:52;5.43;;;5.13;;
17564;SDS011;62994;52.126;5.596;2023-05-10T12:04:33;5.45;;;5.10;;
17564;SDS011;62994;52.126;5.596;2023-05-10T12:07:04;5.93;;;5.45;;
17564;SDS011;62994;52.126;5.596;2023-05-10T12:10:01;5.60;;;5.30;;
17564;SDS011;62994;52.126;5.596;2023-05-10T12:12:48;7.28;;;5.03;;
17564;SDS011;62994;52.126;5.596;2023-05-10T12:15:26;5.30;;;5.00;;
17564;SDS011;62994;52.126;5.596;2023-05-10T12:17:56;5.10;;;4.80;;
17564;SDS011;62994;52.126;5.596;2023-05-10T12:20:27;6.03;;;5.63;;
17564;SDS011;62994;52.126;5.596;2023-05-10T12:23:01;5.13;;;4.82;;
17564;SDS011;62994;52.126;5.596;2023-05-10T12:25:32;5.82;;;5.47;;
17564;SDS011;62994;52.126;5.596;2023-05-10T12:28:11;5.25;;;4.95;;
17564;SDS011;62994;52.126;5.596;2023-05-10T12:30:50;10.95;;;4.90;;
17564;SDS011;62994;52.126;5.596;2023-05-10T12:33:25;4.82;;;4.55;;
17564;SDS011;62994;52.126;5.596;2023-05-10T12:36:22;5.65;;;5.25;;
17564;SDS011;62994;52.126;5.596;2023-05-10T12:39:00;4.30;;;4.10;;
17564;SDS011;62994;52.126;5.596;2023-05-10T12:41:38;4.88;;;4.57;;
17564;SDS011;62994;52.126;5.596;2023-05-10T12:44:18;4.88;;;4.50;;
17564;SDS011;62994;52.126;5.596;2023-05-10T12:47:10;4.50;;;4.18;;
17564;SDS011;62994;52.126;5.596;2023-05-10T12:49:43;4.68;;;4.38;;
17564;SDS011;62994;52.126;5.596;2023-05-10T12:52:17;4.50;;;4.20;;
17564;SDS011;62994;52.126;5.596;2023-05-10T12:54:52;4.78;;;4.47;;
17564;SDS011;62994;52.126;5.596;2023-05-10T12:57:31;4.00;;;3.80;;
17564;SDS011;62994;52.126;5.596;2023-05-10T13:00:09;3.63;;;3.33;;
17564;SDS011;62994;52.126;5.596;2023-05-10T13:02:45;3.58;;;3.38;;
17564;SDS011;62994;52.126;5.596;2023-05-10T13:05:15;3.50;;;3.30;;
17564;SDS011;62994;52.126;5.596;2023-05-10T13:07:46;3.58;;;3.28;;
17564;SDS011;62994;52.126;5.596;2023-05-10T13:10:23;3.47;;;3.17;;
17564;SDS011;62994;52.126;5.596;2023-05-10T13:13:00;3.45;;;3.15;;
17564;SDS011;62994;52.126;5.596;2023-05-10T13:15:35;2.55;;;2.45;;
17564;SDS011;62994;52.126;5.596;2023-05-10T13:18:09;2.80;;;2.63;;
17564;SDS011;62994;52.126;5.596;2023-05-10T13:20:54;2.70;;;2.50;;
17564;SDS011;62994;52.126;5.596;2023-05-10T13:23:39;2.90;;;2.80;;
17564;SDS011;62994;52.126;5.596;2023-05-10T13:26:28;2.20;;;2.10;;
17564;SDS011;62994;52.126;5.596;2023-05-10T13:29:08;2.20;;;2.10;;
17564;SDS011;62994;52.126;5.596;2023-05-10T13:31:48;2.60;;;2.50;;
17564;SDS011;62994;52.126;5.596;2023-05-10T13:34:20;2.30;;;2.20;;
17564;SDS011;62994;52.126;5.596;2023-05-10T13:36:48;2.88;;;2.67;;
17564;SDS011;62994;52.126;5.596;2023-05-10T13:39:15;2.90;;;2.72;;
17564;SDS011;62994;52.126;5.596;2023-05-10T13:41:45;2.50;;;2.40;;
17564;SDS011;62994;52.126;5.596;2023-05-10T13:44:21;2.70;;;2.50;;
17564;SDS011;62994;52.126;5.596;2023-05-10T13:46:56;3.83;;;3.63;;
17564;SDS011;62994;52.126;5.596;2023-05-10T13:49:41;4.13;;;3.92;;
17564;SDS011;62994;52.126;5.596;2023-05-10T13:52:10;3.78;;;3.58;;
17564;SDS011;62994;52.126;5.596;2023-05-10T13:54:40;4.22;;;4.03;;
17564;SDS011;62994;52.126;5.596;2023-05-10T13:57:11;5.22;;;4.93;;
17564;SDS011;62994;52.126;5.596;2023-05-10T13:59:57;4.65;;;4.43;;
17564;SDS011;62994;52.126;5.596;2023-05-10T14:02:35;4.03;;;3.63;;
17564;SDS011;62994;52.126;5.596;2023-05-10T14:05:05;3.83;;;3.38;;
17564;SDS011;62994;52.126;5.596;2023-05-10T14:07:38;4.20;;;3.95;;
17564;SDS011;62994;52.126;5.596;2023-05-10T14:10:15;3.80;;;3.60;;
17564;SDS011;62994;52.126;5.596;2023-05-10T14:12:56;4.30;;;3.70;;
17564;SDS011;62994;52.126;5.596;2023-05-10T14:15:26;3.63;;;3.42;;
17564;SDS011;62994;52.126;5.596;2023-05-10T14:17:57;5.15;;;3.30;;
17564;SDS011;62994;52.126;5.596;2023-05-10T14:20:25;4.20;;;3.80;;
17564;SDS011;62994;52.126;5.596;2023-05-10T14:22:56;3.67;;;3.38;;
17564;SDS011;62994;52.126;5.596;2023-05-10T14:25:26;3.15;;;2.95;;
17564;SDS011;62994;52.126;5.596;2023-05-10T14:27:55;3.33;;;2.90;;
17564;SDS011;62994;52.126;5.596;2023-05-10T14:30:26;3.42;;;3.17;;
17564;SDS011;62994;52.126;5.596;2023-05-10T14:33:04;4.93;;;3.15;;
17564;SDS011;62994;52.126;5.596;2023-05-10T14:35:37;2.80;;;2.60;;
17564;SDS011;62994;52.126;5.596;2023-05-10T14:38:15;5.38;;;3.70;;
17564;SDS011;62994;52.126;5.596;2023-05-10T14:40:43;3.78;;;3.55;;
17564;SDS011;62994;52.126;5.596;2023-05-10T14:43:15;3.20;;;3.00;;
17564;SDS011;62994;52.126;5.596;2023-05-10T14:45:48;3.08;;;2.92;;
17564;SDS011;62994;52.126;5.596;2023-05-10T14:48:23;3.72;;;3.53;;
17564;SDS011;62994;52.126;5.596;2023-05-10T14:50:57;4.13;;;3.83;;
17564;SDS011;62994;52.126;5.596;2023-05-10T14:53:32;3.10;;;3.00;;
17564;SDS011;62994;52.126;5.596;2023-05-10T14:56:19;3.28;;;3.00;;
17564;SDS011;62994;52.126;5.596;2023-05-10T14:58:49;3.35;;;3.20;;
17564;SDS011;62994;52.126;5.596;2023-05-10T15:01:22;3.65;;;3.42;;
17564;SDS011;62994;52.126;5.596;2023-05-10T15:03:51;3.45;;;3.25;;
17564;SDS011;62994;52.126;5.596;2023-05-10T15:06:29;3.58;;;3.38;;
17564;SDS011;62994;52.126;5.596;2023-05-10T15:09:03;4.40;;;4.00;;
17564;SDS011;62994;52.126;5.596;2023-05-10T15:11:30;4.05;;;3.58;;
17564;SDS011;62994;52.126;5.596;2023-05-10T15:14:13;3.60;;;3.40;;
17564;SDS011;62994;52.126;5.596;2023-05-10T15:16:43;3.65;;;3.45;;
17564;SDS011;62994;52.126;5.596;2023-05-10T15:19:27;4.85;;;4.55;;
17564;SDS011;62994;52.126;5.596;2023-05-10T15:22:01;4.32;;;4.13;;
17564;SDS011;62994;52.126;5.596;2023-05-10T15:24:32;4.97;;;4.68;;
17564;SDS011;62994;52.126;5.596;2023-05-10T15:27:09;5.50;;;5.10;;
17564;SDS011;62994;52.126;5.596;2023-05-10T15:29:40;5.13;;;4.82;;
17564;SDS011;62994;52.126;5.596;2023-05-10T15:32:14;5.05;;;4.75;;
17564;SDS011;62994;52.126;5.596;2023-05-10T15:34:47;5.72;;;5.32;;
17564;SDS011;62994;52.126;5.596;2023-05-10T15:37:14;6.63;;;6.03;;
17564;SDS011;62994;52.126;5.596;2023-05-10T15:39:49;5.90;;;5.50;;
17564;SDS011;62994;52.126;5.596;2023-05-10T15:42:33;6.80;;;6.25;;
17564;SDS011;62994;52.126;5.596;2023-05-10T15:45:06;6.07;;;5.57;;
17564;SDS011;62994;52.126;5.596;2023-05-10T15:47:45;5.68;;;5.32;;
17564;SDS011;62994;52.126;5.596;2023-05-10T15:50:15;5.07;;;4.68;;
17564;SDS011;62994;52.126;5.596;2023-05-10T15:52:49;7.65;;;6.95;;
17564;SDS011;62994;52.126;5.596;2023-05-10T15:55:17;7.07;;;6.47;;
17564;SDS011;62994;52.126;5.596;2023-05-10T15:57:52;7.00;;;6.40;;
17564;SDS011;62994;52.126;5.596;2023-05-10T16:00:19;7.07;;;6.38;;
17564;SDS011;62994;52.126;5.596;2023-05-10T16:02:53;7.20;;;6.60;;